Time;durP1;ratioP1;P1;durP2;ratioP2;P2;SDS_P1;SDS_P2;PMS_P1;PMS_P2;Temp;Humidity;BMP_temperature;BMP_pressure;BME280_temperature;BME280_humidity;BME280_pressure;Samples;Min_cycle;Max_cycle;Signal;HPM_P1;HPM_P2
2023/07/26 00:01:20;;;;;;;2.90;1.73;;;14.30;99.90;;;;;;4738283;30;20279;-75
2023/07/26 00:03:46;;;;;;;2.13;1.13;;;14.30;99.90;;;;;;4742471;30;20503;-75
2023/07/26 00:06:12;;;;;;;2.77;1.40;;;14.30;99.90;;;;;;4741024;30;20428;-75
2023/07/26 00:08:37;;;;;;;2.00;1.50;;;14.30;99.90;;;;;;4741587;30;20201;-74
2023/07/26 00:11:03;;;;;;;1.80;1.23;;;14.30;99.90;;;;;;4736698;30;20214;-75
2023/07/26 00:13:29;;;;;;;1.70;1.20;;;14.30;99.90;;;;;;4733996;30;20207;-76
2023/07/26 00:15:55;;;;;;;2.30;1.47;;;14.30;99.90;;;;;;4752603;30;20544;-75
2023/07/26 00:18:20;;;;;;;2.07;1.57;;;14.30;99.90;;;;;;4742806;30;20232;-76
2023/07/26 00:20:46;;;;;;;1.90;1.30;;;14.30;99.90;;;;;;4758603;30;20557;-76
2023/07/26 00:23:12;;;;;;;4.23;1.33;;;14.30;99.90;;;;;;4718228;30;20210;-74
2023/07/26 00:25:37;;;;;;;1.17;1.00;;;14.30;99.90;;;;;;4738732;30;20220;-75
2023/07/26 00:28:04;;;;;;;1.73;1.40;;;14.30;99.90;;;;;;4760802;30;20567;-73
2023/07/26 00:30:31;;;;;;;2.07;1.43;;;14.30;99.90;;;;;;4768473;30;20244;-76
2023/07/26 00:33:00;;;;;;;1.80;1.40;;;14.30;99.90;;;;;;4745715;30;20419;-73
2023/07/26 00:35:29;;;;;;;2.00;1.40;;;14.30;99.90;;;;;;4751698;30;20735;-77
2023/07/26 00:37:55;;;;;;;1.80;1.33;;;14.30;99.90;;;;;;4775853;30;20425;-76
2023/07/26 00:40:21;;;;;;;1.77;1.03;;;14.30;99.90;;;;;;4770053;30;20518;-77
2023/07/26 00:42:46;;;;;;;2.40;1.10;;;14.30;99.90;;;;;;4774749;30;20194;-76
2023/07/26 00:45:12;;;;;;;1.80;1.40;;;14.30;99.90;;;;;;4765162;30;20207;-76
2023/07/26 00:47:38;;;;;;;1.90;0.93;;;14.20;99.90;;;;;;4756413;30;20178;-75
2023/07/26 00:50:05;;;;;;;3.73;1.60;;;14.30;99.90;;;;;;4774908;30;20212;-76
2023/07/26 00:52:31;;;;;;;1.53;1.10;;;14.30;99.90;;;;;;4753964;30;20430;-75
2023/07/26 00:55:00;;;;;;;2.17;1.47;;;14.30;99.90;;;;;;4742990;30;20460;-75
2023/07/26 00:57:26;;;;;;;1.40;1.07;;;14.30;99.90;;;;;;4726375;30;20404;-75
2023/07/26 00:59:52;;;;;;;1.37;1.10;;;14.40;99.90;;;;;;4741136;30;20507;-76
2023/07/26 01:02:18;;;;;;;2.17;1.27;;;14.40;99.90;;;;;;4758871;30;20432;-75
2023/07/26 01:04:44;;;;;;;1.73;1.37;;;14.40;99.90;;;;;;4774197;30;20413;-76
2023/07/26 01:07:19;;;;;;;1.30;1.00;;;14.40;99.90;;;;;;4784514;30;20430;-75
2023/07/26 01:10:13;;;;;;;1.30;1.10;;;14.40;99.90;;;;;;4771059;30;20219;-76
2023/07/26 01:12:46;;;;;;;2.07;1.17;;;14.40;99.90;;;;;;4751353;30;20438;-76
2023/07/26 01:15:14;;;;;;;1.50;1.10;;;14.50;99.90;;;;;;4774897;30;20462;-77
2023/07/26 01:17:40;;;;;;;2.80;1.30;;;14.50;99.90;;;;;;4774536;30;20414;-74
2023/07/26 01:20:06;;;;;;;1.90;1.50;;;14.50;99.90;;;;;;4741846;30;20602;-75
2023/07/26 01:22:32;;;;;;;2.03;1.27;;;14.50;99.90;;;;;;4741571;30;20417;-75
2023/07/26 01:24:58;;;;;;;2.80;1.00;;;14.50;99.90;;;;;;4736795;30;20424;-76
2023/07/26 01:27:26;;;;;;;2.17;1.17;;;14.50;99.90;;;;;;4739899;30;20589;-74
2023/07/26 01:29:55;;;;;;;2.50;1.50;;;14.50;99.90;;;;;;4739643;30;20533;-76
2023/07/26 01:32:23;;;;;;;1.73;1.17;;;14.50;99.90;;;;;;4741653;30;20435;-75
2023/07/26 01:34:49;;;;;;;4.30;2.33;;;14.50;99.90;;;;;;4755945;30;20453;-76
2023/07/26 01:37:17;;;;;;;3.43;1.50;;;14.50;99.90;;;;;;4741288;30;20451;-76
2023/07/26 01:39:46;;;;;;;1.70;1.60;;;14.50;99.90;;;;;;4755782;30;20483;-76
2023/07/26 01:42:12;;;;;;;2.87;1.77;;;14.40;99.90;;;;;;4722953;30;20447;-76
2023/07/26 01:44:37;;;;;;;2.63;1.50;;;14.40;99.90;;;;;;4735384;30;20442;-75
2023/07/26 01:47:04;;;;;;;2.83;1.93;;;14.40;99.90;;;;;;4758950;30;20179;-76
2023/07/26 01:49:29;;;;;;;4.13;1.27;;;14.40;99.90;;;;;;4756241;30;20650;-74
2023/07/26 01:51:55;;;;;;;2.80;1.50;;;14.50;99.90;;;;;;4754983;30;20415;-77
2023/07/26 01:54:21;;;;;;;4.37;1.30;;;14.50;99.90;;;;;;4754692;30;20208;-74
2023/07/26 01:56:47;;;;;;;1.70;1.17;;;14.50;99.90;;;;;;4738299;30;20178;-76
2023/07/26 01:59:13;;;;;;;2.53;1.10;;;14.40;99.90;;;;;;4723820;30;20244;-75
2023/07/26 02:01:39;;;;;;;1.40;1.10;;;14.40;99.90;;;;;;4738027;30;20451;-75
2023/07/26 02:04:05;;;;;;;2.10;1.20;;;14.40;99.90;;;;;;4734847;30;20201;-75
2023/07/26 02:06:30;;;;;;;1.37;1.00;;;14.40;99.90;;;;;;4754890;30;20248;-77
2023/07/26 02:08:56;;;;;;;2.30;1.53;;;14.30;99.90;;;;;;4737606;30;20200;-75
2023/07/26 02:11:22;;;;;;;2.60;1.70;;;14.20;99.90;;;;;;4737246;30;20619;-75
2023/07/26 02:13:47;;;;;;;1.40;1.30;;;14.30;99.90;;;;;;4768084;30;20221;-75
2023/07/26 02:16:13;;;;;;;1.97;1.27;;;14.30;99.90;;;;;;4751713;30;20193;-76
2023/07/26 02:18:39;;;;;;;1.90;1.33;;;14.20;99.90;;;;;;4723711;30;20206;-76
2023/07/26 02:21:04;;;;;;;1.70;1.17;;;14.20;99.90;;;;;;4745194;30;20215;-77
2023/07/26 02:23:30;;;;;;;4.10;1.73;;;14.20;99.90;;;;;;4757575;30;20221;-76
2023/07/26 02:25:56;;;;;;;3.20;1.80;;;14.20;99.90;;;;;;4748501;30;20221;-76
2023/07/26 02:28:21;;;;;;;2.23;1.57;;;14.20;99.90;;;;;;4767532;30;20208;-75
2023/07/26 02:30:47;;;;;;;1.57;1.47;;;14.10;99.90;;;;;;4760306;30;20297;-76
2023/07/26 02:33:13;;;;;;;5.57;1.50;;;14.10;99.90;;;;;;4760562;30;20203;-75
2023/07/26 02:35:38;;;;;;;2.37;1.70;;;14.20;99.90;;;;;;4775025;30;20650;-75
2023/07/26 02:38:04;;;;;;;2.57;1.60;;;14.20;99.90;;;;;;4740540;30;20225;-74
2023/07/26 02:40:30;;;;;;;2.20;1.50;;;14.10;99.90;;;;;;4754740;30;20204;-75
2023/07/26 02:42:56;;;;;;;3.90;2.07;;;14.20;99.90;;;;;;4739596;30;20209;-75
2023/07/26 02:45:21;;;;;;;4.03;1.70;;;14.10;99.90;;;;;;4740295;30;20426;-75
2023/07/26 02:47:47;;;;;;;6.03;2.43;;;14.20;99.90;;;;;;4726030;30;20189;-76
2023/07/26 02:50:14;;;;;;;3.30;2.33;;;14.10;99.90;;;;;;4742444;30;20268;-75
2023/07/26 02:52:39;;;;;;;2.17;1.60;;;14.10;99.90;;;;;;4743992;30;20446;-75
2023/07/26 02:55:05;;;;;;;1.70;1.60;;;14.10;99.90;;;;;;4743791;30;20208;-76
2023/07/26 02:57:31;;;;;;;2.57;1.97;;;14.10;99.90;;;;;;4747116;30;20203;-76
2023/07/26 02:59:58;;;;;;;1.70;1.50;;;14.10;99.90;;;;;;4746573;30;20482;-76
2023/07/26 03:02:23;;;;;;;3.90;3.20;;;14.10;99.90;;;;;;4732175;30;20427;-76
2023/07/26 03:04:49;;;;;;;3.37;2.43;;;14.10;99.90;;;;;;4760736;30;20445;-75
2023/07/26 03:07:15;;;;;;;5.40;2.30;;;14.10;99.90;;;;;;4759894;30;20192;-76
2023/07/26 03:09:41;;;;;;;4.30;2.23;;;14.10;99.90;;;;;;4745820;30;20216;-74
2023/07/26 03:12:07;;;;;;;3.40;2.53;;;14.20;99.90;;;;;;4776589;30;20197;-75
2023/07/26 03:14:32;;;;;;;3.20;2.90;;;14.20;99.90;;;;;;4760336;30;20203;-76
2023/07/26 03:16:58;;;;;;;6.93;3.00;;;14.10;99.90;;;;;;4763870;30;20434;-75
2023/07/26 03:19:24;;;;;;;2.40;1.90;;;14.10;99.90;;;;;;4771700;30;20208;-76
2023/07/26 03:21:49;;;;;;;4.17;2.97;;;14.10;99.90;;;;;;4761513;30;20181;-76
2023/07/26 03:24:15;;;;;;;3.10;2.10;;;14.10;99.90;;;;;;4766159;30;20183;-75
2023/07/26 03:26:41;;;;;;;2.43;2.23;;;14.10;99.90;;;;;;4794594;30;20251;-75
2023/07/26 03:29:06;;;;;;;3.90;2.57;;;14.10;99.90;;;;;;4778378;30;20195;-76
2023/07/26 03:31:32;;;;;;;2.93;2.23;;;14.10;99.90;;;;;;4766238;30;20247;-76
2023/07/26 03:33:58;;;;;;;4.03;3.47;;;14.10;99.90;;;;;;4756081;30;20196;-77
2023/07/26 03:36:24;;;;;;;2.53;2.33;;;14.10;99.90;;;;;;4764240;30;20200;-75
2023/07/26 03:38:49;;;;;;;3.93;2.37;;;14.00;99.90;;;;;;4753113;30;20458;-76
2023/07/26 03:41:15;;;;;;;6.57;3.43;;;14.00;99.90;;;;;;4762388;30;20240;-76
2023/07/26 03:43:41;;;;;;;2.90;2.40;;;14.10;99.90;;;;;;4764457;30;20191;-74
2023/07/26 03:46:07;;;;;;;3.87;2.00;;;14.10;99.90;;;;;;4762298;30;20193;-77
2023/07/26 03:48:36;;;;;;;2.13;1.93;;;14.10;99.90;;;;;;4760683;30;20204;-75
2023/07/26 03:51:02;;;;;;;3.30;1.80;;;14.10;99.90;;;;;;4730849;30;20478;-78
2023/07/26 03:53:28;;;;;;;1.93;1.73;;;14.10;99.90;;;;;;4756672;30;20250;-75
2023/07/26 03:55:55;;;;;;;2.00;1.70;;;14.10;99.90;;;;;;4750475;30;20422;-75
2023/07/26 03:58:21;;;;;;;2.00;1.80;;;14.10;99.90;;;;;;4793923;30;20486;-75
2023/07/26 04:00:46;;;;;;;2.07;1.87;;;14.10;99.90;;;;;;4764070;30;20226;-75
2023/07/26 04:03:12;;;;;;;2.70;2.20;;;14.20;99.90;;;;;;4771579;30;20232;-76
2023/07/26 04:05:38;;;;;;;3.40;1.73;;;14.20;99.90;;;;;;4754843;30;20314;-74
2023/07/26 04:08:04;;;;;;;2.13;1.80;;;14.20;99.90;;;;;;4740410;30;20447;-76
2023/07/26 04:10:30;;;;;;;2.73;2.07;;;14.20;99.90;;;;;;4733489;30;20291;-75
2023/07/26 04:12:55;;;;;;;3.87;2.27;;;14.20;99.90;;;;;;4722893;30;20207;-75
2023/07/26 04:15:21;;;;;;;2.03;1.87;;;14.30;99.90;;;;;;4738264;30;20181;-74
2023/07/26 04:17:47;;;;;;;2.63;2.30;;;14.30;99.90;;;;;;4723315;30;20199;-74
2023/07/26 04:20:12;;;;;;;2.30;1.77;;;14.30;99.90;;;;;;4735908;30;20228;-78
2023/07/26 04:22:38;;;;;;;4.33;2.27;;;14.30;99.90;;;;;;4756335;30;20269;-75
2023/07/26 04:25:04;;;;;;;3.30;2.37;;;14.30;99.90;;;;;;4747415;30;20210;-75
2023/07/26 04:27:30;;;;;;;4.23;2.13;;;14.30;99.90;;;;;;4726739;30;20193;-75
2023/07/26 04:29:56;;;;;;;3.40;2.23;;;14.30;99.90;;;;;;4746654;30;20471;-76
2023/07/26 04:32:22;;;;;;;3.37;3.07;;;14.30;99.90;;;;;;4755497;30;20189;-76
2023/07/26 04:34:47;;;;;;;3.93;2.97;;;14.30;99.90;;;;;;4740298;30;20195;-75
2023/07/26 04:37:13;;;;;;;4.23;3.20;;;14.30;99.90;;;;;;4761344;30;20180;-75
2023/07/26 04:39:39;;;;;;;5.83;3.27;;;14.30;99.90;;;;;;4746221;30;20224;-73
2023/07/26 04:42:05;;;;;;;3.63;3.13;;;14.30;99.90;;;;;;4749842;30;20195;-76
2023/07/26 04:44:31;;;;;;;4.87;3.40;;;14.30;99.90;;;;;;4761209;30;20418;-75
2023/07/26 04:46:57;;;;;;;6.20;4.00;;;14.30;99.90;;;;;;4757608;30;20517;-76
2023/07/26 04:49:23;;;;;;;4.07;3.40;;;14.30;99.90;;;;;;4764059;30;20228;-76
2023/07/26 04:51:49;;;;;;;2.93;2.27;;;14.20;99.90;;;;;;4744186;30;20427;-76
2023/07/26 04:54:15;;;;;;;3.83;2.07;;;14.20;99.90;;;;;;4743254;30;20224;-76
2023/07/26 04:56:40;;;;;;;2.20;2.00;;;14.20;99.90;;;;;;4745881;30;20192;-76
2023/07/26 04:59:06;;;;;;;3.13;2.07;;;14.20;99.90;;;;;;4750008;30;20520;-75
2023/07/26 05:01:32;;;;;;;2.40;1.77;;;14.20;99.90;;;;;;4732631;30;20235;-76
2023/07/26 05:03:58;;;;;;;2.17;1.90;;;14.30;99.90;;;;;;4776788;30;20519;-75
2023/07/26 05:06:27;;;;;;;3.07;2.03;;;14.30;99.90;;;;;;4746032;30;20201;-75
2023/07/26 05:08:52;;;;;;;4.20;2.10;;;14.30;99.90;;;;;;4740732;30;20204;-77
2023/07/26 05:11:22;;;;;;;2.77;2.20;;;14.30;99.90;;;;;;4742206;30;20478;-77
2023/07/26 05:13:49;;;;;;;2.10;1.90;;;14.30;99.90;;;;;;4744743;30;20184;-78
2023/07/26 05:16:14;;;;;;;3.20;1.80;;;14.40;99.90;;;;;;4758308;30;20414;-77
2023/07/26 05:18:41;;;;;;;3.00;1.97;;;14.50;99.90;;;;;;4741865;30;20458;-76
2023/07/26 05:21:06;;;;;;;1.80;1.43;;;14.50;99.90;;;;;;4743137;30;20451;-76
2023/07/26 05:23:32;;;;;;;1.90;1.40;;;14.60;99.90;;;;;;4744147;30;20656;-76
2023/07/26 05:25:59;;;;;;;1.70;1.60;;;14.70;99.90;;;;;;4731731;30;20247;-76
2023/07/26 05:28:25;;;;;;;1.70;1.30;;;14.80;99.90;;;;;;4740817;30;20420;-76
2023/07/26 05:30:50;;;;;;;1.50;1.20;;;14.90;99.90;;;;;;4727208;30;20223;-76
2023/07/26 05:33:16;;;;;;;2.80;1.50;;;15.10;99.90;;;;;;4726700;30;20173;-76
2023/07/26 05:35:43;;;;;;;2.00;1.57;;;15.20;99.90;;;;;;4742140;30;20220;-77
2023/07/26 05:38:08;;;;;;;1.90;1.67;;;15.40;99.90;;;;;;4727134;30;20416;-77
2023/07/26 05:40:38;;;;;;;4.47;2.30;;;15.50;99.90;;;;;;4751056;30;20542;-76
2023/07/26 05:43:04;;;;;;;4.27;2.50;;;15.60;99.90;;;;;;4723547;30;20489;-77
2023/07/26 05:45:30;;;;;;;2.93;2.03;;;15.70;99.90;;;;;;4738215;30;20436;-76
2023/07/26 05:47:56;;;;;;;2.57;1.93;;;15.80;99.90;;;;;;4711391;30;20190;-78
2023/07/26 05:50:26;;;;;;;3.77;2.23;;;15.90;99.90;;;;;;4723003;30;20480;-77
2023/07/26 05:52:53;;;;;;;2.30;2.10;;;16.10;99.90;;;;;;4723914;30;20476;-76
2023/07/26 05:55:19;;;;;;;2.93;2.00;;;16.20;99.60;;;;;;4717060;30;20453;-76
2023/07/26 05:57:48;;;;;;;4.50;3.40;;;16.30;99.40;;;;;;4693098;30;20469;-76
2023/07/26 06:00:14;;;;;;;5.50;2.47;;;16.40;98.70;;;;;;4706353;30;20489;-76
2023/07/26 06:02:40;;;;;;;5.83;2.80;;;16.50;98.30;;;;;;4706210;30;20510;-77
2023/07/26 06:05:08;;;;;;;4.50;3.10;;;16.50;97.50;;;;;;4708658;30;20475;-77
2023/07/26 06:07:34;;;;;;;3.27;2.53;;;16.60;97.20;;;;;;4724115;30;20197;-77
2023/07/26 06:10:02;;;;;;;3.40;2.33;;;16.60;96.80;;;;;;4695442;30;20455;-78
2023/07/26 06:12:28;;;;;;;3.33;2.70;;;16.70;96.60;;;;;;4725329;30;20426;-78
2023/07/26 06:14:57;;;;;;;5.53;4.00;;;16.70;96.50;;;;;;4696834;30;20542;-77
2023/07/26 06:17:27;;;;;;;3.83;3.30;;;16.70;95.60;;;;;;4744098;30;20405;-76
2023/07/26 06:19:55;;;;;;;5.10;3.43;;;16.70;95.30;;;;;;4730572;30;20490;-77
2023/07/26 06:22:25;;;;;;;4.37;2.50;;;16.70;96.20;;;;;;4731817;30;20429;-75
2023/07/26 06:24:51;;;;;;;3.33;2.80;;;16.70;96.40;;;;;;4717044;30;20431;-77
2023/07/26 06:30:16;;;;;;;3.00;2.40;;;17.00;95.30;;;;;;5532628;24;20535;-78
2023/07/26 06:32:47;;;;;;;4.10;2.77;;;17.40;93.90;;;;;;4797377;30;20986;-76
2023/07/26 06:35:15;;;;;;;3.90;2.50;;;17.90;91.90;;;;;;4768639;29;20430;-76
2023/07/26 06:37:45;;;;;;;2.90;2.27;;;18.40;88.20;;;;;;4813113;30;20459;-75
2023/07/26 06:40:12;;;;;;;3.87;2.80;;;18.70;83.40;;;;;;4777878;30;20468;-76
2023/07/26 06:42:38;;;;;;;3.10;2.80;;;18.90;79.90;;;;;;4727707;30;20440;-77
2023/07/26 06:45:26;;;;;;;4.07;2.87;;;18.90;77.60;;;;;;4713465;30;20527;-79
2023/07/26 06:47:57;;;;;;;5.40;3.13;;;18.80;76.50;;;;;;4742963;30;20425;-77
2023/07/26 06:50:46;;;;;;;2.90;2.60;;;18.70;76.30;;;;;;4713714;30;20479;-75
2023/07/26 06:53:12;;;;;;;2.70;2.20;;;18.60;77.20;;;;;;4727037;30;20445;-77
2023/07/26 06:55:51;;;;;;;5.67;3.63;;;18.60;78.70;;;;;;4727887;30;20496;-75
2023/07/26 06:58:19;;;;;;;7.53;3.27;;;18.40;76.60;;;;;;4713864;30;20468;-75
2023/07/26 07:00:48;;;;;;;5.00;3.30;;;18.20;78.60;;;;;;4727503;30;20455;-78
2023/07/26 07:03:18;;;;;;;4.90;3.47;;;17.90;81.60;;;;;;4693925;30;20425;-77
2023/07/26 07:05:50;;;;;;;4.47;3.10;;;18.00;83.20;;;;;;4724915;30;20472;-76
2023/07/26 07:08:24;;;;;;;7.23;4.00;;;18.00;82.60;;;;;;4724989;30;20408;-77
2023/07/26 07:10:53;;;;;;;5.40;3.50;;;18.00;82.80;;;;;;4748971;30;20470;-77
2023/07/26 07:22:42;;;;;;;3.87;2.93;;;18.60;78.00;;;;;;4491970;24;20498;-76
2023/07/26 07:28:27;;;;;;;6.03;3.50;;;18.70;75.90;;;;;;4849844;24;20574;-75
2023/07/26 07:31:10;;;;;;;6.03;3.60;;;18.60;75.10;;;;;;4788544;29;20474;-75
2023/07/26 07:33:36;;;;;;;6.73;4.60;;;18.40;77.40;;;;;;4751551;29;20422;-76
2023/07/26 07:38:46;;;;;;;4.77;3.10;;;18.10;81.70;;;;;;4794178;29;20483;-74
2023/07/26 07:41:16;;;;;;;4.70;3.43;;;18.10;82.00;;;;;;4712720;30;20478;-77
2023/07/26 07:43:45;;;;;;;4.97;2.80;;;18.20;81.60;;;;;;4664484;30;20446;-77
2023/07/26 07:46:17;;;;;;;7.27;4.10;;;18.10;82.50;;;;;;4692356;30;20421;-78
2023/07/26 07:48:46;;;;;;;6.23;4.77;;;18.00;83.20;;;;;;4693078;30;20454;-75
2023/07/26 07:51:15;;;;;;;5.20;3.33;;;17.90;83.70;;;;;;4692791;30;20458;-76
2023/07/26 07:53:42;;;;;;;7.33;3.03;;;17.90;85.90;;;;;;4664365;30;20491;-77
2023/07/26 07:56:19;;;;;;;9.07;3.70;;;18.10;85.50;;;;;;4944190;24;20505;-74
2023/07/26 07:58:47;;;;;;;5.13;3.03;;;18.10;84.60;;;;;;4764944;30;20473;-76
2023/07/26 08:04:04;;;;;;;4.83;3.37;;;18.40;83.70;;;;;;4872016;24;20502;-76
2023/07/26 08:06:53;;;;;;;6.23;3.73;;;18.60;84.70;;;;;;4800440;29;20435;-77
2023/07/26 08:12:26;;;;;;;4.30;3.17;;;19.20;79.90;;;;;;5059701;24;20515;-76
2023/07/26 08:14:58;;;;;;;10.83;4.60;;;19.60;78.20;;;;;;4814603;29;20467;-77
2023/07/26 08:17:37;;;;;;;13.20;4.80;;;20.00;72.70;;;;;;4791827;29;20407;-76
2023/07/26 08:20:49;;;;;;;;;;;;;;;;;;;;;
2023/07/26 08:23:19;;;;;;;3.93;3.20;;;19.70;73.10;;;;;;4800472;29;20412;-76
2023/07/26 08:28:49;;;;;;;8.77;3.90;;;19.70;72.80;;;;;;5051887;24;20484;-77
2023/07/26 08:43:10;;;;;;;7.57;4.40;;;19.80;72.80;;;;;;3302280;24;20492;-78
2023/07/26 08:45:47;;;;;;;5.20;3.27;;;20.10;67.50;;;;;;4772973;30;20427;-76
2023/07/26 10:14:19;;;;;;;9.80;4.40;;;19.70;61.40;;;;;;5235384;24;20581;-78
2023/07/26 11:13:06;;;;;;;7.33;4.97;;;;;;;;;;5051457;24;20499;-78
2023/07/26 11:15:34;;;;;;;7.80;4.57;;;13.90;99.90;;;;;;4790782;30;20429;-78
2023/07/26 11:18:21;;;;;;;5.70;4.30;;;13.30;99.90;;;;;;4765446;30;20440;-80
2023/07/26 11:20:54;;;;;;;5.70;4.13;;;12.80;99.90;;;;;;4796239;29;20512;-80
2023/07/26 11:23:30;;;;;;;4.60;3.80;;;12.40;99.90;;;;;;4768353;29;20437;-80
2023/07/26 11:26:02;;;;;;;3.20;2.77;;;12.30;99.90;;;;;;4798668;29;20453;-79
2023/07/26 11:28:33;;;;;;;3.47;2.90;;;12.40;99.90;;;;;;4783512;30;20440;-80
2023/07/26 11:31:03;;;;;;;3.77;2.70;;;12.60;99.90;;;;;;4769486;29;20460;-81
2023/07/26 18:38:19;;;;;;;6.10;4.30;;;23.60;49.90;;;;;;4974032;24;20466;31
2023/07/26 18:40:45;;;;;;;6.83;4.77;;;23.60;50.50;;;;;;4766239;30;20471;-78
2023/07/26 18:43:17;;;;;;;5.43;3.50;;;23.50;49.70;;;;;;4775528;30;20513;-79
2023/07/26 18:45:44;;;;;;;5.67;4.43;;;23.10;51.40;;;;;;4759190;30;20194;-73
2023/07/26 18:48:10;;;;;;;3.93;3.50;;;22.60;53.10;;;;;;4772833;30;20454;-78
2023/07/26 18:50:43;;;;;;;4.60;3.57;;;22.10;54.90;;;;;;4760076;30;20418;-76
2023/07/26 18:53:10;;;;;;;4.67;4.10;;;21.70;55.40;;;;;;4760517;30;20183;-77
2023/07/26 18:55:39;;;;;;;3.27;2.90;;;21.30;57.20;;;;;;4771946;30;20471;-76
2023/07/26 18:58:05;;;;;;;3.33;2.97;;;20.90;58.10;;;;;;4790841;30;20426;-77
2023/07/26 19:00:50;;;;;;;4.30;2.77;;;20.60;59.80;;;;;;4837579;24;20477;-77
2023/07/26 19:03:16;;;;;;;3.10;2.23;;;20.30;61.00;;;;;;4808093;30;20436;-77
2023/07/26 19:05:42;;;;;;;2.00;1.70;;;20.00;62.70;;;;;;4795145;30;20404;-77
2023/07/26 19:08:18;;;;;;;1.97;1.50;;;19.80;64.30;;;;;;4781405;30;20208;-78
2023/07/26 19:10:48;;;;;;;2.80;2.00;;;19.60;65.70;;;;;;4743085;30;20462;-74
2023/07/26 19:13:17;;;;;;;3.50;2.10;;;19.50;67.00;;;;;;4732077;30;20427;-77
2023/07/26 19:15:54;;;;;;;1.87;1.60;;;19.40;68.00;;;;;;4849558;24;21150;-77
2023/07/26 19:18:20;;;;;;;2.67;1.60;;;19.30;70.10;;;;;;4767720;30;20439;-76
2023/07/26 19:20:46;;;;;;;1.60;1.40;;;19.30;71.80;;;;;;4792325;29;20472;-75
2023/07/26 19:23:11;;;;;;;2.17;1.87;;;19.30;73.20;;;;;;4814262;29;20174;-78
2023/07/26 19:25:37;;;;;;;2.67;1.83;;;19.20;74.70;;;;;;4830034;29;20174;-75
2023/07/26 19:28:08;;;;;;;2.23;2.00;;;19.20;75.80;;;;;;4813901;29;20220;-78
2023/07/26 19:30:39;;;;;;;2.10;1.70;;;19.20;76.60;;;;;;4786934;29;20230;-78
2023/07/26 19:33:12;;;;;;;3.03;2.27;;;19.10;76.00;;;;;;4815695;29;20419;-79
2023/07/26 19:38:17;;;;;;;2.10;1.50;;;19.10;77.30;;;;;;5016850;24;20547;-76
2023/07/26 19:41:01;;;;;;;2.10;1.77;;;19.10;77.50;;;;;;4791567;29;20461;-77
2023/07/26 19:43:43;;;;;;;1.70;1.30;;;19.10;78.40;;;;;;4776321;30;20454;-78
2023/07/26 19:46:32;;;;;;;1.50;1.10;;;19.10;78.00;;;;;;4733461;30;20482;-77
2023/07/26 19:48:59;;;;;;;1.60;1.33;;;19.10;79.00;;;;;;4755186;30;20784;-76
2023/07/26 19:51:27;;;;;;;2.17;1.30;;;19.10;80.50;;;;;;4696224;30;20477;-76
2023/07/26 19:53:54;;;;;;;2.37;2.10;;;19.00;81.90;;;;;;4740246;30;20427;-78
2023/07/26 19:56:22;;;;;;;2.33;1.80;;;19.00;81.20;;;;;;4754818;30;20423;-78
2023/07/26 19:58:49;;;;;;;3.30;2.40;;;19.00;79.40;;;;;;4742241;30;20550;-78
2023/07/26 20:01:20;;;;;;;2.73;1.80;;;19.00;79.40;;;;;;4740847;30;20503;-75
2023/07/26 20:03:48;;;;;;;3.13;2.20;;;18.90;81.60;;;;;;4754832;30;20506;-77
2023/07/26 20:06:15;;;;;;;2.33;1.70;;;18.90;80.40;;;;;;4755660;30;20435;-75
2023/07/26 20:08:41;;;;;;;2.83;1.80;;;18.90;77.90;;;;;;4961755;24;20480;-77
2023/07/26 20:11:09;;;;;;;2.10;1.53;;;18.90;76.60;;;;;;4793786;30;20457;-77
2023/07/26 20:13:41;;;;;;;3.93;2.47;;;18.90;76.40;;;;;;4779362;30;20175;-76
2023/07/26 20:16:12;;;;;;;2.97;2.10;;;18.90;76.40;;;;;;4794568;30;20528;-78
2023/07/26 20:18:40;;;;;;;2.03;1.73;;;18.80;76.40;;;;;;4781147;30;20499;-76
2023/07/26 20:21:09;;;;;;;1.80;1.60;;;18.80;75.60;;;;;;4794380;30;20413;-77
2023/07/26 20:23:37;;;;;;;2.70;1.97;;;18.80;75.60;;;;;;4794866;29;20163;-78
2023/07/26 20:26:41;;;;;;;3.30;2.40;;;18.80;76.30;;;;;;4797158;30;20417;-77
2023/07/26 20:37:23;;;;;;;3.50;2.27;;;18.80;73.40;;;;;;5215742;24;20484;-78
2023/07/26 20:39:50;;;;;;;3.63;2.67;;;18.70;73.90;;;;;;4788571;30;20504;-77
2023/07/26 20:42:17;;;;;;;5.00;2.90;;;18.70;74.00;;;;;;4778022;30;20425;-78
2023/07/26 20:44:44;;;;;;;4.30;3.40;;;18.70;74.00;;;;;;4793352;30;20409;-76
2023/07/26 20:47:10;;;;;;;4.20;3.30;;;18.70;74.10;;;;;;4794398;30;20418;-76
2023/07/26 20:49:37;;;;;;;4.10;3.70;;;18.70;74.00;;;;;;4769782;30;20421;-77
2023/07/26 20:52:09;;;;;;;4.03;3.23;;;18.60;74.40;;;;;;4757709;30;20429;-77
2023/07/26 20:54:35;;;;;;;5.17;3.87;;;18.60;75.80;;;;;;4756343;30;20169;-77
2023/07/26 20:57:01;;;;;;;6.30;3.87;;;18.60;77.70;;;;;;4765151;30;20493;-77
2023/07/26 20:59:30;;;;;;;4.20;3.20;;;18.50;80.20;;;;;;4790884;30;20332;-77
2023/07/26 21:01:57;;;;;;;5.93;4.30;;;18.50;82.80;;;;;;4748760;30;20424;-77
2023/07/26 21:04:23;;;;;;;4.93;4.00;;;18.40;85.00;;;;;;4735563;30;20490;-75
2023/07/26 21:06:50;;;;;;;4.13;3.53;;;18.40;87.20;;;;;;4751151;30;20447;-77
2023/07/26 21:09:17;;;;;;;3.67;3.00;;;18.30;89.00;;;;;;4722880;30;20188;-75
2023/07/26 21:11:48;;;;;;;3.87;3.20;;;18.30;90.30;;;;;;4751745;30;20436;-78
2023/07/26 21:14:14;;;;;;;4.27;3.40;;;18.30;91.10;;;;;;4741974;30;20200;-76
2023/07/26 21:16:39;;;;;;;3.87;3.00;;;18.20;91.70;;;;;;4760859;30;20435;-74
2023/07/26 21:19:06;;;;;;;4.47;3.63;;;18.20;92.50;;;;;;4752054;30;20276;-76
2023/07/26 21:21:36;;;;;;;5.43;3.80;;;18.20;93.10;;;;;;4804360;29;20202;-74
2023/07/26 21:24:03;;;;;;;3.77;3.37;;;18.20;94.00;;;;;;4793689;29;20424;-76
2023/07/26 21:26:28;;;;;;;3.47;2.60;;;18.10;94.50;;;;;;4806046;29;20489;-76
2023/07/26 21:28:54;;;;;;;3.27;2.97;;;18.10;95.20;;;;;;4791475;29;20419;-74
2023/07/26 21:31:23;;;;;;;4.27;3.33;;;18.10;95.80;;;;;;4806531;29;20533;-77
2023/07/26 21:33:49;;;;;;;4.10;3.60;;;18.00;96.50;;;;;;4807566;29;20194;-74
2023/07/26 21:36:15;;;;;;;3.50;2.97;;;18.00;97.00;;;;;;4805961;29;20441;-75
2023/07/26 21:38:40;;;;;;;5.03;3.30;;;18.00;97.50;;;;;;4807558;29;20505;-74
2023/07/26 21:41:07;;;;;;;4.07;3.00;;;18.00;97.90;;;;;;4796728;29;20222;-76
2023/07/26 21:43:33;;;;;;;3.50;2.93;;;17.90;98.30;;;;;;4775753;30;20221;-75
2023/07/26 21:45:59;;;;;;;4.93;4.00;;;17.90;98.60;;;;;;4773755;30;20424;-74
2023/07/26 21:48:26;;;;;;;3.90;3.00;;;17.90;98.80;;;;;;4780108;29;20209;-77
2023/07/26 21:50:52;;;;;;;4.87;3.60;;;17.90;99.20;;;;;;4776342;30;20528;-76
2023/07/26 21:53:18;;;;;;;5.03;3.47;;;17.90;99.40;;;;;;4772049;30;20433;-76
2023/07/26 21:55:43;;;;;;;4.03;3.00;;;17.90;99.70;;;;;;4770182;30;20191;-74
2023/07/26 21:58:09;;;;;;;3.37;2.77;;;17.90;99.90;;;;;;4804123;30;20246;-76
2023/07/26 22:00:38;;;;;;;4.90;3.27;;;17.90;99.90;;;;;;4802826;29;20246;-75
2023/07/26 22:03:04;;;;;;;3.70;2.80;;;17.90;99.90;;;;;;4787543;30;20592;-74
2023/07/26 22:05:30;;;;;;;4.80;3.53;;;17.90;99.90;;;;;;4778819;29;20423;-74
2023/07/26 22:07:55;;;;;;;4.10;3.37;;;17.90;99.70;;;;;;4788577;29;20511;-74
2023/07/26 22:10:23;;;;;;;4.50;3.20;;;17.90;99.30;;;;;;4795795;29;20278;-74
2023/07/26 22:12:52;;;;;;;3.60;2.87;;;17.80;99.10;;;;;;4786331;30;20187;-76
2023/07/26 22:15:18;;;;;;;3.50;2.90;;;17.80;99.00;;;;;;4788604;30;20424;-75
2023/07/26 22:17:44;;;;;;;3.73;2.43;;;17.80;98.90;;;;;;4786050;30;20525;-74
2023/07/26 22:20:10;;;;;;;3.40;2.80;;;17.70;98.70;;;;;;4785638;30;20492;-74
2023/07/26 22:22:37;;;;;;;3.60;2.73;;;17.70;98.70;;;;;;4769236;30;20214;-73
2023/07/26 22:25:02;;;;;;;4.20;3.07;;;17.60;98.80;;;;;;4778774;30;20468;-74
2023/07/26 22:27:28;;;;;;;4.00;2.10;;;17.60;99.00;;;;;;4775613;29;20443;-74
2023/07/26 22:29:59;;;;;;;4.07;3.23;;;17.50;99.20;;;;;;4788460;29;20294;-74
2023/07/26 22:32:25;;;;;;;3.50;2.03;;;17.50;99.40;;;;;;4788162;29;20486;-74
2023/07/26 22:34:50;;;;;;;2.70;1.90;;;17.40;99.70;;;;;;4747336;30;20819;-74
2023/07/26 22:37:16;;;;;;;4.00;2.43;;;17.50;99.90;;;;;;4736728;30;20550;-74
2023/07/26 22:39:42;;;;;;;2.70;2.13;;;17.40;99.90;;;;;;4744290;30;20243;-74
2023/07/26 22:42:07;;;;;;;3.33;2.83;;;17.40;99.90;;;;;;4746042;30;20184;-77
2023/07/26 22:44:33;;;;;;;3.93;2.90;;;17.40;99.90;;;;;;4757379;30;20596;-75
2023/07/26 22:46:59;;;;;;;3.03;2.70;;;17.40;99.90;;;;;;4737744;30;20181;-76
2023/07/26 22:49:25;;;;;;;2.90;2.30;;;17.40;99.90;;;;;;4734763;30;20217;-76
2023/07/26 22:51:50;;;;;;;2.70;2.10;;;17.30;99.90;;;;;;4731144;30;20262;-75
2023/07/26 22:54:16;;;;;;;2.43;1.90;;;17.30;99.90;;;;;;4720889;30;20778;-75
2023/07/26 22:56:42;;;;;;;4.10;2.20;;;17.30;99.90;;;;;;4725918;30;20203;-73
2023/07/26 22:59:09;;;;;;;2.20;1.77;;;17.20;99.90;;;;;;4737584;30;20219;-73
2023/07/26 23:01:34;;;;;;;2.03;1.53;;;17.20;99.90;;;;;;4744413;30;20501;-74
2023/07/26 23:04:00;;;;;;;2.30;1.93;;;17.20;99.90;;;;;;4758848;30;20473;-75
2023/07/26 23:06:25;;;;;;;3.10;2.13;;;17.20;99.90;;;;;;4795583;29;20213;-73
2023/07/26 23:08:51;;;;;;;2.90;2.27;;;17.20;99.90;;;;;;4789001;29;20204;-74